Time;durP1;ratioP1;P1;durP2;ratioP2;P2;SDS_P1;SDS_P2;PMS_P1;PMS_P2;Temp;Humidity;BMP_temperature;BMP_pressure;BME280_temperature;BME280_humidity;BME280_pressure;Samples;Min_cycle;Max_cycle;Signal;HPM_P1;HPM_P2
2021/08/02 00:00:06;;;;;;;3.70;1.60;;;;;;;;;;4993847;28;20026;-76
2021/08/02 00:02:44;;;;;;;4.40;1.85;;;;;;;;;;4994605;28;20026;-76
2021/08/02 00:05:10;;;;;;;6.35;1.77;;;;;;;;;;4993507;28;20034;-76
2021/08/02 00:07:38;;;;;;;2.90;1.60;;;;;;;;;;5005549;28;20472;-76
2021/08/02 00:10:11;;;;;;;4.40;1.80;;;;;;;;;;4976920;28;20501;-76
2021/08/02 00:12:44;;;;;;;5.10;1.83;;;;;;;;;;4977360;28;20076;-76
2021/08/02 00:15:10;;;;;;;3.95;1.85;;;;;;;;;;4978105;28;20037;-77
2021/08/02 00:17:38;;;;;;;4.43;1.90;;;;;;;;;;4993669;28;20112;-76
2021/08/02 00:20:04;;;;;;;4.90;1.70;;;;;;;;;;4995208;28;20029;-76
2021/08/02 00:22:29;;;;;;;5.60;1.77;;;;;;;;;;4996347;28;20022;-76
2021/08/02 00:24:54;;;;;;;4.60;1.90;;;;;;;;;;4978258;28;20136;-76
2021/08/02 00:27:20;;;;;;;11.00;2.23;;;;;;;;;;4976953;28;20064;-76
2021/08/02 00:29:45;;;;;;;4.50;1.80;;;;;;;;;;4977410;28;20466;-76
2021/08/02 00:32:11;;;;;;;3.70;1.53;;;;;;;;;;4994300;28;20511;-76
2021/08/02 00:34:36;;;;;;;3.50;1.80;;;;;;;;;;4981676;28;20045;-76
2021/08/02 00:37:06;;;;;;;4.10;1.80;;;;;;;;;;4994708;28;20112;-76
2021/08/02 00:39:44;;;;;;;3.75;1.55;;;;;;;;;;4995828;28;20036;-76
2021/08/02 00:42:43;;;;;;;5.07;1.58;;;;;;;;;;5010381;28;20508;-76
2021/08/02 00:45:14;;;;;;;4.13;1.60;;;;;;;;;;5009628;28;20034;-76
2021/08/02 00:47:46;;;;;;;4.53;1.88;;;;;;;;;;5006736;28;20085;-76
2021/08/02 00:50:16;;;;;;;3.47;1.52;;;;;;;;;;4968412;28;20405;-76
2021/08/02 00:52:46;;;;;;;4.82;1.90;;;;;;;;;;5010569;28;20101;-76
2021/08/02 00:55:11;;;;;;;4.55;1.80;;;;;;;;;;4995250;28;20080;-76
2021/08/02 00:57:37;;;;;;;5.07;1.83;;;;;;;;;;4992836;28;20030;-76
2021/08/02 01:00:06;;;;;;;4.10;1.70;;;;;;;;;;4976451;28;20040;-76
2021/08/02 01:02:36;;;;;;;3.58;1.58;;;;;;;;;;4973909;28;20030;-76
2021/08/02 01:05:02;;;;;;;4.63;1.70;;;;;;;;;;4976754;28;20076;-76
2021/08/02 01:07:27;;;;;;;3.73;1.63;;;;;;;;;;4992485;28;20117;-76
2021/08/02 01:09:52;;;;;;;4.70;1.90;;;;;;;;;;4976527;28;20062;-76
2021/08/02 01:12:17;;;;;;;3.43;1.67;;;;;;;;;;4989098;28;20049;-76
2021/08/02 01:14:43;;;;;;;4.50;1.80;;;;;;;;;;4982430;28;20062;-76
2021/08/02 01:17:08;;;;;;;3.67;1.53;;;;;;;;;;4994865;28;20065;-76
2021/08/02 01:19:35;;;;;;;4.10;1.77;;;;;;;;;;4983769;28;20169;-76
2021/08/02 01:22:00;;;;;;;4.63;1.63;;;;;;;;;;4960233;28;20089;-76
2021/08/02 01:24:26;;;;;;;4.23;1.80;;;;;;;;;;4970568;28;20026;-76
2021/08/02 01:26:57;;;;;;;5.20;1.90;;;;;;;;;;4977202;28;20505;-76
2021/08/02 01:29:59;;;;;;;3.75;1.63;;;;;;;;;;4995472;28;20022;-76
2021/08/02 01:32:25;;;;;;;3.33;1.63;;;;;;;;;;4993555;28;20121;-76
2021/08/02 01:34:50;;;;;;;3.77;1.50;;;;;;;;;;4974883;28;20097;-76
2021/08/02 01:37:16;;;;;;;4.77;1.77;;;;;;;;;;4992254;28;20022;-76
2021/08/02 01:39:43;;;;;;;4.40;1.73;;;;;;;;;;4971199;28;20105;-76
2021/08/02 01:42:08;;;;;;;3.85;1.65;;;;;;;;;;4960317;28;20109;-76
2021/08/02 01:44:36;;;;;;;3.47;1.60;;;;;;;;;;4994504;28;20105;-76
2021/08/02 01:47:10;;;;;;;5.07;1.90;;;;;;;;;;4978056;28;20089;-76
2021/08/02 01:49:41;;;;;;;4.47;1.88;;;;;;;;;;4972331;28;20023;-76
2021/08/02 01:52:10;;;;;;;4.07;1.60;;;;;;;;;;4979844;28;20041;-76
2021/08/02 01:54:47;;;;;;;4.00;1.67;;;;;;;;;;4966978;28;20036;-76
2021/08/02 01:57:27;;;;;;;5.32;1.90;;;;;;;;;;5011705;28;20029;-76
2021/08/02 01:59:56;;;;;;;3.60;1.52;;;;;;;;;;4998521;28;20469;-76
2021/08/02 02:02:21;;;;;;;4.63;1.85;;;;;;;;;;4965070;28;20117;-76
2021/08/02 02:04:54;;;;;;;2.93;1.67;;;;;;;;;;4963957;28;20101;-76
2021/08/02 02:07:20;;;;;;;4.43;1.73;;;;;;;;;;4992127;28;20035;-76
2021/08/02 02:09:45;;;;;;;4.33;1.80;;;;;;;;;;4992004;28;20069;-76
2021/08/02 02:12:10;;;;;;;4.53;1.77;;;;;;;;;;4974725;28;20050;-76
2021/08/02 02:14:37;;;;;;;5.30;1.90;;;;;;;;;;5004400;28;20029;-76
2021/08/02 02:17:03;;;;;;;4.00;1.73;;;;;;;;;;4982556;28;20573;-76
2021/08/02 02:19:28;;;;;;;4.10;2.00;;;;;;;;;;4974000;28;20117;-76
2021/08/02 02:21:54;;;;;;;4.60;1.90;;;;;;;;;;4973120;28;20038;-76
2021/08/02 02:24:19;;;;;;;4.20;1.60;;;;;;;;;;4998656;28;20033;-76
2021/08/02 02:26:45;;;;;;;4.30;1.80;;;;;;;;;;4980434;28;20033;-76
2021/08/02 02:29:11;;;;;;;4.88;2.08;;;;;;;;;;4995130;28;20536;-76
2021/08/02 02:31:37;;;;;;;4.70;1.70;;;;;;;;;;4979042;28;20062;-76
2021/08/02 02:34:04;;;;;;;4.53;1.80;;;;;;;;;;4978902;28;20366;-76
2021/08/02 02:36:29;;;;;;;4.93;1.80;;;;;;;;;;4979051;28;20023;-76
2021/08/02 02:38:54;;;;;;;5.30;2.00;;;;;;;;;;4983274;28;20030;-76
2021/08/02 02:41:20;;;;;;;3.70;1.70;;;;;;;;;;4995803;28;20084;-76
2021/08/02 02:43:47;;;;;;;3.33;1.80;;;;;;;;;;4977665;28;20027;-76
2021/08/02 02:46:13;;;;;;;4.70;1.65;;;;;;;;;;4963199;28;20022;-76
2021/08/02 02:48:38;;;;;;;5.90;1.87;;;;;;;;;;4983103;28;20061;-76
2021/08/02 02:51:03;;;;;;;3.33;1.80;;;;;;;;;;4998165;28;20030;-76
2021/08/02 02:53:29;;;;;;;4.37;1.93;;;;;;;;;;4989842;28;20065;-76
2021/08/02 02:55:54;;;;;;;3.53;1.73;;;;;;;;;;4965529;28;20129;-76
2021/08/02 02:58:19;;;;;;;3.67;1.70;;;;;;;;;;4994231;28;20514;-76
2021/08/02 03:00:45;;;;;;;3.50;1.63;;;;;;;;;;5005632;28;20497;-76
2021/08/02 03:03:10;;;;;;;3.37;1.63;;;;;;;;;;4986059;28;20061;-76
2021/08/02 03:05:37;;;;;;;4.17;1.87;;;;;;;;;;4995739;28;20661;-76
2021/08/02 03:08:02;;;;;;;4.97;1.90;;;;;;;;;;4997792;28;20034;-76
2021/08/02 03:10:27;;;;;;;4.73;1.80;;;;;;;;;;5013607;28;20034;-76
2021/08/02 03:12:53;;;;;;;4.67;1.80;;;;;;;;;;4997684;28;20018;-76
2021/08/02 03:15:18;;;;;;;4.97;2.10;;;;;;;;;;4997688;28;20032;-76
2021/08/02 03:17:44;;;;;;;5.87;1.97;;;;;;;;;;4977193;28;20038;-76
2021/08/02 03:20:10;;;;;;;6.00;2.10;;;;;;;;;;4978056;28;20468;-76
2021/08/02 03:22:56;;;;;;;5.10;1.92;;;;;;;;;;4994206;28;20056;-76
2021/08/02 03:25:36;;;;;;;4.70;2.25;;;;;;;;;;4994059;28;20437;-76
2021/08/02 03:28:20;;;;;;;4.90;2.30;;;;;;;;;;4978002;28;20037;-76
2021/08/02 03:30:47;;;;;;;4.85;2.00;;;;;;;;;;4995213;28;20030;-76
2021/08/02 03:33:17;;;;;;;3.83;1.90;;;;;;;;;;4996601;28;20022;-76
2021/08/02 03:35:43;;;;;;;4.43;2.20;;;;;;;;;;4987670;28;20034;-76
2021/08/02 03:38:08;;;;;;;3.55;2.03;;;;;;;;;;4977799;28;20033;-76
2021/08/02 03:40:34;;;;;;;3.27;1.90;;;;;;;;;;4977681;28;20493;-76
2021/08/02 03:42:59;;;;;;;3.57;1.97;;;;;;;;;;4977585;28;20065;-76
2021/08/02 03:45:24;;;;;;;3.67;1.80;;;;;;;;;;4977975;28;20068;-76
2021/08/02 03:47:50;;;;;;;4.30;2.30;;;;;;;;;;4978077;28;20053;-76
2021/08/02 03:50:15;;;;;;;3.13;1.70;;;;;;;;;;4946692;28;20058;-76
2021/08/02 03:52:40;;;;;;;4.03;1.80;;;;;;;;;;4968176;28;20049;-76
2021/08/02 03:55:06;;;;;;;4.20;2.00;;;;;;;;;;4996276;28;20032;-76
2021/08/02 03:57:32;;;;;;;4.82;1.88;;;;;;;;;;4960938;28;20124;-76
2021/08/02 03:59:57;;;;;;;4.22;1.95;;;;;;;;;;4962464;28;20093;-76
2021/08/02 04:02:22;;;;;;;3.57;1.83;;;;;;;;;;4991485;28;20037;-76
2021/08/02 04:04:48;;;;;;;3.67;2.00;;;;;;;;;;4977240;28;20490;-76
2021/08/02 04:07:13;;;;;;;3.07;1.87;;;;;;;;;;4995621;28;20064;-76
2021/08/02 04:09:39;;;;;;;3.70;2.10;;;;;;;;;;4977665;28;20053;-76
2021/08/02 04:12:04;;;;;;;3.77;2.00;;;;;;;;;;4977115;28;20050;-76
2021/08/02 04:14:30;;;;;;;4.70;2.33;;;;;;;;;;4954863;28;20033;-76
2021/08/02 04:16:55;;;;;;;3.97;1.93;;;;;;;;;;4994778;28;20497;-76
2021/08/02 04:19:20;;;;;;;4.70;2.30;;;;;;;;;;4960917;28;20459;-76
2021/08/02 04:21:46;;;;;;;4.30;2.13;;;;;;;;;;4988996;28;20084;-76
2021/08/02 04:24:11;;;;;;;4.60;2.27;;;;;;;;;;4996360;28;20064;-76
2021/08/02 04:26:37;;;;;;;3.97;2.03;;;;;;;;;;4996292;28;20026;-76
2021/08/02 04:29:02;;;;;;;4.43;2.20;;;;;;;;;;5004163;28;20074;-76
2021/08/02 04:31:29;;;;;;;5.13;2.30;;;;;;;;;;4993089;28;20045;-76
2021/08/02 04:33:55;;;;;;;3.67;1.90;;;;;;;;;;4984908;28;20024;-76
2021/08/02 04:36:21;;;;;;;4.30;2.10;;;;;;;;;;5013731;28;20030;-76
2021/08/02 04:38:46;;;;;;;4.20;2.17;;;;;;;;;;4962844;28;20049;-76
2021/08/02 04:41:12;;;;;;;5.40;2.27;;;;;;;;;;4960616;28;20485;-76
2021/08/02 04:43:37;;;;;;;4.87;2.30;;;;;;;;;;4979764;28;20181;-76
2021/08/02 04:46:03;;;;;;;4.43;2.03;;;;;;;;;;4963855;28;20033;-76
2021/08/02 04:48:28;;;;;;;4.03;2.00;;;;;;;;;;4997875;28;20036;-76
2021/08/02 04:50:53;;;;;;;4.57;2.10;;;;;;;;;;4995601;28;20447;-76
2021/08/02 04:53:19;;;;;;;3.77;1.90;;;;;;;;;;4994717;28;20046;-76
2021/08/02 04:55:44;;;;;;;4.30;2.00;;;;;;;;;;5013628;28;20104;-76
2021/08/02 04:58:09;;;;;;;4.93;2.20;;;;;;;;;;4995199;28;20061;-76
2021/08/02 05:00:35;;;;;;;4.97;2.30;;;;;;;;;;4978019;28;20065;-76
2021/08/02 05:03:01;;;;;;;4.40;1.97;;;;;;;;;;4992135;28;20489;-76
2021/08/02 05:05:27;;;;;;;4.93;2.40;;;;;;;;;;5077485;23;20058;-76
2021/08/02 05:07:52;;;;;;;4.15;2.20;;;;;;;;;;5012352;28;20028;-75
2021/08/02 05:10:18;;;;;;;4.87;2.07;;;;;;;;;;5011812;28;20029;-76
2021/08/02 05:12:43;;;;;;;5.20;2.10;;;;;;;;;;4994382;28;20022;-76
2021/08/02 05:15:10;;;;;;;4.33;1.93;;;;;;;;;;4968447;28;20084;-76
2021/08/02 05:17:35;;;;;;;6.55;2.10;;;;;;;;;;4979545;28;20032;-76
2021/08/02 05:20:00;;;;;;;4.50;2.23;;;;;;;;;;4965976;28;20026;-76
2021/08/02 05:22:26;;;;;;;4.03;2.10;;;;;;;;;;4961506;28;20117;-75
2021/08/02 05:24:51;;;;;;;4.63;1.93;;;;;;;;;;4990348;28;20455;-76
2021/08/02 05:27:16;;;;;;;5.20;2.00;;;;;;;;;;4983130;28;20060;-76
2021/08/02 05:29:42;;;;;;;4.53;2.17;;;;;;;;;;4980892;28;20032;-76
2021/08/02 05:32:07;;;;;;;6.07;2.33;;;;;;;;;;5001651;28;20054;-76
2021/08/02 05:34:32;;;;;;;5.03;2.33;;;;;;;;;;4980312;28;20545;-76
2021/08/02 05:36:58;;;;;;;6.03;2.13;;;;;;;;;;4992733;28;20026;-76
2021/08/02 05:39:23;;;;;;;4.77;2.27;;;;;;;;;;4999521;28;20046;-76
2021/08/02 05:41:48;;;;;;;5.13;2.17;;;;;;;;;;4983265;28;20053;-76
2021/08/02 05:44:14;;;;;;;3.73;1.77;;;;;;;;;;4979927;28;20115;-76
2021/08/02 05:46:39;;;;;;;5.03;2.30;;;;;;;;;;4979837;28;20037;-76
2021/08/02 05:49:04;;;;;;;4.80;2.20;;;;;;;;;;4995799;28;20553;-76
2021/08/02 05:51:30;;;;;;;4.60;2.00;;;;;;;;;;4995929;28;20466;-76
2021/08/02 05:53:56;;;;;;;4.80;2.10;;;;;;;;;;4990028;28;20081;-76
2021/08/02 05:56:21;;;;;;;5.95;2.50;;;;;;;;;;5009723;28;20033;-76
2021/08/02 05:58:47;;;;;;;5.67;2.47;;;;;;;;;;4969277;28;20033;-76
2021/08/02 06:01:12;;;;;;;5.17;2.50;;;;;;;;;;4980191;28;20018;-76
2021/08/02 06:03:37;;;;;;;6.73;2.43;;;;;;;;;;4988391;28;20038;-76
2021/08/02 06:06:03;;;;;;;6.13;2.60;;;;;;;;;;4979586;28;20477;-76
2021/08/02 06:08:28;;;;;;;5.30;2.30;;;;;;;;;;4979489;28;20116;-76
2021/08/02 06:10:53;;;;;;;4.30;2.10;;;;;;;;;;4982263;28;20468;-76
2021/08/02 06:13:19;;;;;;;5.33;2.60;;;;;;;;;;4998454;28;20076;-76
2021/08/02 06:15:46;;;;;;;6.30;2.37;;;;;;;;;;5016463;28;20101;-76
2021/08/02 06:18:11;;;;;;;5.47;2.30;;;;;;;;;;4997821;28;20026;-76
2021/08/02 06:20:36;;;;;;;5.33;2.20;;;;;;;;;;4981776;28;20036;-76
2021/08/02 06:23:03;;;;;;;5.07;2.50;;;;;;;;;;4994114;28;20029;-76
2021/08/02 06:25:29;;;;;;;5.72;2.45;;;;;;;;;;4998551;28;20112;-76
2021/08/02 06:27:54;;;;;;;5.27;2.47;;;;;;;;;;4980806;28;20121;-76
2021/08/02 06:30:19;;;;;;;6.23;2.50;;;;;;;;;;4990875;28;20026;-76
2021/08/02 06:32:45;;;;;;;7.00;2.57;;;;;;;;;;5006258;28;20060;-75
2021/08/02 06:35:10;;;;;;;6.67;2.77;;;;;;;;;;4993829;28;20026;-76
2021/08/02 06:37:39;;;;;;;6.37;2.80;;;;;;;;;;4980924;28;20201;-76
2021/08/02 06:40:05;;;;;;;5.82;2.38;;;;;;;;;;4992604;28;20084;-76
2021/08/02 06:42:30;;;;;;;5.90;2.40;;;;;;;;;;5022307;28;20038;-76
2021/08/02 06:44:56;;;;;;;5.67;2.20;;;;;;;;;;4985551;28;20076;-76
2021/08/02 06:47:21;;;;;;;5.77;2.40;;;;;;;;;;4995616;28;20060;-76
2021/08/02 06:49:46;;;;;;;6.47;2.33;;;;;;;;;;4962616;28;20061;-76
2021/08/02 06:52:12;;;;;;;6.57;2.47;;;;;;;;;;4994778;28;20058;-75
2021/08/02 06:54:37;;;;;;;5.27;2.40;;;;;;;;;;4994917;28;20600;-75
2021/08/02 06:57:03;;;;;;;5.83;2.47;;;;;;;;;;4978853;28;20050;-76
2021/08/02 06:59:28;;;;;;;5.75;2.35;;;;;;;;;;4978672;28;20069;-76
2021/08/02 07:01:53;;;;;;;4.97;2.30;;;;;;;;;;4993815;28;20449;-76
2021/08/02 07:04:19;;;;;;;7.27;2.80;;;;;;;;;;4962342;28;20034;-76
2021/08/02 07:06:44;;;;;;;6.53;2.50;;;;;;;;;;4982065;28;20084;-76
2021/08/02 07:09:10;;;;;;;5.83;2.23;;;;;;;;;;4994620;28;20065;-75
2021/08/02 07:11:35;;;;;;;6.13;2.60;;;;;;;;;;4980968;28;20026;-76
2021/08/02 07:14:01;;;;;;;5.63;2.70;;;;;;;;;;4994507;28;20065;-77
2021/08/02 07:16:26;;;;;;;6.63;2.67;;;;;;;;;;4962119;28;20065;-76
2021/08/02 07:18:52;;;;;;;7.83;2.90;;;;;;;;;;4991604;28;20112;-76
2021/08/02 07:21:18;;;;;;;;;;;;;;;;;;4977243;28;20563;-76
2021/08/02 07:23:44;;;;;;;6.72;3.10;;;;;;;;;;5011046;28;19921;-76
2021/08/02 07:26:09;;;;;;;7.63;3.00;;;;;;;;;;4981513;28;20030;-76
2021/08/02 07:28:34;;;;;;;5.73;2.80;;;;;;;;;;4997243;28;20044;-76
2021/08/02 07:31:00;;;;;;;7.70;3.27;;;;;;;;;;4994311;28;20480;-76
2021/08/02 07:33:25;;;;;;;6.73;2.93;;;;;;;;;;4982199;28;20029;-76
2021/08/02 07:35:51;;;;;;;6.90;2.90;;;;;;;;;;4978405;28;20124;-76
2021/08/02 07:38:16;;;;;;;8.52;3.10;;;;;;;;;;4962909;28;20092;-76
2021/08/02 07:40:41;;;;;;;8.33;3.13;;;;;;;;;;5013447;28;20034;-76
2021/08/02 07:43:07;;;;;;;6.93;3.20;;;;;;;;;;5013266;28;20105;-76
2021/08/02 07:45:32;;;;;;;7.13;3.10;;;;;;;;;;4977082;28;20054;-76
2021/08/02 07:47:57;;;;;;;9.07;2.80;;;;;;;;;;4994479;28;20458;-76
2021/08/02 07:50:23;;;;;;;7.83;3.20;;;;;;;;;;4964839;28;20069;-76
2021/08/02 07:52:48;;;;;;;6.23;3.23;;;;;;;;;;4993614;28;20110;-76
2021/08/02 07:55:13;;;;;;;9.27;3.00;;;;;;;;;;4998020;28;20049;-76
2021/08/02 07:57:39;;;;;;;9.70;3.43;;;;;;;;;;4970926;28;20037;-76
2021/08/02 08:00:06;;;;;;;8.33;3.20;;;;;;;;;;4977698;28;20036;-76
2021/08/02 08:02:31;;;;;;;7.47;3.40;;;;;;;;;;4988011;28;20422;-76
2021/08/02 08:04:56;;;;;;;7.30;3.07;;;;;;;;;;4977256;28;20117;-76
2021/08/02 08:07:22;;;;;;;6.50;2.57;;;;;;;;;;4977321;28;20065;-76
2021/08/02 08:09:47;;;;;;;6.20;2.67;;;;;;;;;;4977342;28;20053;-76
2021/08/02 08:12:12;;;;;;;5.50;2.63;;;;;;;;;;5002503;28;20061;-76
2021/08/02 08:14:38;;;;;;;6.10;3.10;;;;;;;;;;4994389;28;20069;-76
2021/08/02 08:17:03;;;;;;;6.50;2.90;;;;;;;;;;4968475;28;20057;-76
2021/08/02 08:19:29;;;;;;;8.30;3.33;;;;;;;;;;4996543;28;20029;-76
2021/08/02 08:21:54;;;;;;;7.77;3.40;;;;;;;;;;4975102;28;20068;-77
2021/08/02 08:24:19;;;;;;;7.90;3.53;;;;;;;;;;4994184;28;20054;-77
2021/08/02 08:26:44;;;;;;;7.63;3.30;;;;;;;;;;5012837;28;20489;-77
2021/08/02 08:29:10;;;;;;;6.93;3.10;;;;;;;;;;5012782;28;20448;-77
2021/08/02 08:31:35;;;;;;;5.33;2.77;;;;;;;;;;4996320;28;20112;-77
2021/08/02 08:34:01;;;;;;;6.30;3.00;;;;;;;;;;4996383;28;20056;-76
2021/08/02 08:36:26;;;;;;;5.97;2.90;;;;;;;;;;4976170;28;20485;-77
2021/08/02 08:38:51;;;;;;;4.93;2.90;;;;;;;;;;5011879;28;20053;-77
2021/08/02 08:41:20;;;;;;;5.03;2.60;;;;;;;;;;4979414;28;20431;-78
2021/08/02 08:43:48;;;;;;;7.85;2.65;;;;;;;;;;5011501;28;20049;-77
2021/08/02 08:46:17;;;;;;;5.60;2.88;;;;;;;;;;4996208;28;20052;-76
2021/08/02 08:48:42;;;;;;;7.40;3.30;;;;;;;;;;4996018;28;20025;-76
2021/08/02 08:51:07;;;;;;;6.50;2.93;;;;;;;;;;4975577;28;20523;-76
2021/08/02 08:53:33;;;;;;;9.03;3.10;;;;;;;;;;4976248;28;20477;-76
2021/08/02 08:55:59;;;;;;;8.27;3.33;;;;;;;;;;4994657;28;20057;-76
2021/08/02 08:58:24;;;;;;;7.63;3.50;;;;;;;;;;5000564;28;20477;-76
2021/08/02 09:00:58;;;;;;;6.13;2.93;;;;;;;;;;4971648;28;20038;-76
2021/08/02 09:03:23;;;;;;;7.65;3.47;;;;;;;;;;4992642;28;20026;-76
2021/08/02 09:05:49;;;;;;;6.47;3.23;;;;;;;;;;4982669;28;20036;-77
2021/08/02 09:08:21;;;;;;;5.90;3.27;;;;;;;;;;4996565;28;20121;-77
2021/08/02 09:10:57;;;;;;;7.45;3.65;;;;;;;;;;4978504;28;20034;-77
2021/08/02 09:13:29;;;;;;;7.60;3.47;;;;;;;;;;4995084;28;20023;-77
2021/08/02 09:15:56;;;;;;;6.95;3.30;;;;;;;;;;4994713;28;20026;-77
2021/08/02 09:18:22;;;;;;;6.72;3.30;;;;;;;;;;4979518;28;20392;-77
2021/08/02 09:20:58;;;;;;;6.47;3.17;;;;;;;;;;4994273;28;20030;-77
2021/08/02 09:23:23;;;;;;;5.93;2.95;;;;;;;;;;4980405;28;20281;-77
2021/08/02 09:25:50;;;;;;;8.53;3.10;;;;;;;;;;4992187;28;20066;-77
2021/08/02 09:28:18;;;;;;;7.30;3.30;;;;;;;;;;5001757;28;20400;-77
2021/08/02 09:30:56;;;;;;;6.25;3.15;;;;;;;;;;4960297;28;20061;-77
2021/08/02 09:33:22;;;;;;;5.50;2.75;;;;;;;;;;5000768;28;20022;-77
2021/08/02 09:35:51;;;;;;;5.90;2.83;;;;;;;;;;4995577;28;20026;-76
2021/08/02 09:38:16;;;;;;;5.85;3.17;;;;;;;;;;4971468;28;20068;-77
2021/08/02 09:40:49;;;;;;;5.72;2.72;;;;;;;;;;4960640;28;20027;-77
2021/08/02 09:43:28;;;;;;;7.20;3.20;;;;;;;;;;4961869;28;20081;-77
2021/08/02 09:45:57;;;;;;;6.72;2.90;;;;;;;;;;4980414;28;20040;-77
2021/08/02 09:48:39;;;;;;;5.18;2.55;;;;;;;;;;4996218;28;20366;-77
2021/08/02 09:51:25;;;;;;;6.00;2.97;;;;;;;;;;4995717;28;20181;-77
2021/08/02 09:53:52;;;;;;;5.25;2.55;;;;;;;;;;4995230;28;20123;-77
2021/08/02 09:56:18;;;;;;;6.35;3.33;;;;;;;;;;4995600;28;20030;-77
2021/08/02 09:58:44;;;;;;;;;;;;;;;;;;4995565;28;20029;-76
2021/08/02 10:01:19;;;;;;;5.93;2.97;;;;;;;;;;5011898;28;20287;-77
2021/08/02 10:03:45;;;;;;;6.25;2.90;;;;;;;;;;4979452;28;20021;-76
2021/08/02 10:06:11;;;;;;;6.53;2.87;;;;;;;;;;4994932;28;20076;-77
2021/08/02 10:08:36;;;;;;;;;;;;;;;;;;4980728;28;20295;-77
2021/08/02 10:11:02;;;;;;;6.17;2.80;;;;;;;;;;5004884;28;19917;-77
2021/08/02 10:13:29;;;;;;;6.45;3.00;;;;;;;;;;4980206;28;20425;-77
2021/08/02 10:15:56;;;;;;;5.63;2.80;;;;;;;;;;4963406;28;20037;-77
2021/08/02 10:18:21;;;;;;;6.45;3.13;;;;;;;;;;4986978;28;20507;-77
2021/08/02 10:20:47;;;;;;;6.33;3.03;;;;;;;;;;4995197;28;20099;-76
2021/08/02 10:23:13;;;;;;;5.75;2.60;;;;;;;;;;4995308;28;20037;-76
2021/08/02 10:25:40;;;;;;;6.20;2.70;;;;;;;;;;4995527;28;20026;-76
2021/08/02 10:28:05;;;;;;;5.40;2.80;;;;;;;;;;5011854;28;20030;-76
2021/08/02 10:30:30;;;;;;;5.33;2.90;;;;;;;;;;4996607;28;20096;-76
2021/08/02 10:32:56;;;;;;;5.23;2.70;;;;;;;;;;4979601;28;20445;-76
2021/08/02 10:35:32;;;;;;;7.03;2.90;;;;;;;;;;4966883;28;20109;-76
2021/08/02 10:37:59;;;;;;;6.40;2.95;;;;;;;;;;4994739;28;20092;-76
2021/08/02 10:40:24;;;;;;;5.68;2.78;;;;;;;;;;4998634;28;20022;-76
2021/08/02 10:42:50;;;;;;;5.70;2.63;;;;;;;;;;4981974;28;20065;-76
2021/08/02 10:45:30;;;;;;;6.80;2.80;;;;;;;;;;4981097;28;20026;-76
2021/08/02 10:47:55;;;;;;;5.80;2.88;;;;;;;;;;4998729;28;20028;-76
2021/08/02 10:50:25;;;;;;;7.00;2.83;;;;;;;;;;4998164;28;20081;-76
2021/08/02 10:52:50;;;;;;;5.53;2.50;;;;;;;;;;4992492;28;20022;-76
2021/08/02 10:55:16;;;;;;;6.20;2.67;;;;;;;;;;4996180;28;20489;-76
2021/08/02 10:57:42;;;;;;;6.30;2.80;;;;;;;;;;4995364;28;20049;-76
2021/08/02 11:00:20;;;;;;;5.37;2.50;;;;;;;;;;4978729;28;20265;-76
2021/08/02 11:02:50;;;;;;;6.60;2.78;;;;;;;;;;4972120;28;20053;-76
2021/08/02 11:05:15;;;;;;;6.53;2.72;;;;;;;;;;4984083;28;20026;-76
2021/08/02 11:10:09;;;;;;;6.43;2.60;;;;;;;;;;4994311;28;20085;-76
2021/08/02 11:12:44;;;;;;;5.10;2.50;;;;;;;;;;4999280;28;20473;-76
2021/08/02 11:15:09;;;;;;;5.50;2.50;;;;;;;;;;4974337;28;20058;-76
2021/08/02 11:17:35;;;;;;;6.77;2.77;;;;;;;;;;4964081;28;20032;-76
2021/08/02 11:20:02;;;;;;;5.17;2.53;;;;;;;;;;4961452;28;20104;-76
2021/08/02 11:22:27;;;;;;;5.03;2.70;;;;;;;;;;4961862;28;20049;-77
2021/08/02 11:24:54;;;;;;;4.87;2.60;;;;;;;;;;4961986;28;20131;-76
2021/08/02 11:27:19;;;;;;;7.97;2.97;;;;;;;;;;4962153;28;20034;-76
2021/08/02 11:29:52;;;;;;;5.10;2.60;;;;;;;;;;4962007;28;20022;-76
2021/08/02 11:32:20;;;;;;;5.60;2.55;;;;;;;;;;4961491;28;20026;-77
2021/08/02 11:34:55;;;;;;;4.95;2.65;;;;;;;;;;4962292;28;20481;-77
2021/08/02 11:37:21;;;;;;;6.53;2.70;;;;;;;;;;4961621;28;20038;-76
2021/08/02 11:39:47;;;;;;;;;;;;;;;;;;4978598;28;20511;-77
2021/08/02 11:42:17;;;;;;;5.93;2.50;;;;;;;;;;4977790;28;19913;-76
2021/08/02 11:44:43;;;;;;;6.20;2.78;;;;;;;;;;4961210;28;20069;-76
2021/08/02 11:47:16;;;;;;;4.97;2.50;;;;;;;;;;4961300;28;20078;-77
2021/08/02 11:49:42;;;;;;;5.15;2.42;;;;;;;;;;4961819;28;20030;-76
2021/08/02 11:52:08;;;;;;;4.93;2.40;;;;;;;;;;4977108;28;20026;-76
2021/08/02 11:54:33;;;;;;;7.03;2.80;;;;;;;;;;4977707;28;20501;-76
2021/08/02 11:56:58;;;;;;;7.27;2.70;;;;;;;;;;4961595;28;20045;-76
2021/08/02 11:59:25;;;;;;;6.67;2.70;;;;;;;;;;4961140;28;20023;-77
2021/08/02 12:01:51;;;;;;;;;;;;;;;;;;4977876;28;20096;-76
2021/08/02 12:04:17;;;;;;;4.70;2.47;;;;;;;;;;4977102;28;19914;-76
2021/08/02 12:06:56;;;;;;;5.43;2.40;;;;;;;;;;4961547;28;20089;-77
2021/08/02 12:09:34;;;;;;;5.20;2.42;;;;;;;;;;4961174;28;20044;-76
2021/08/02 12:12:09;;;;;;;6.47;2.70;;;;;;;;;;4974083;28;20034;-77
2021/08/02 12:14:34;;;;;;;5.68;2.85;;;;;;;;;;4976781;28;20027;-77
2021/08/02 12:17:06;;;;;;;6.13;2.83;;;;;;;;;;4960911;28;20089;-77
2021/08/02 12:19:48;;;;;;;5.60;2.65;;;;;;;;;;4961267;28;20485;-77
2021/08/02 12:22:15;;;;;;;5.53;2.60;;;;;;;;;;4961026;28;20397;-76
2021/08/02 12:24:54;;;;;;;6.80;2.58;;;;;;;;;;4976740;28;20499;-77
2021/08/02 12:27:19;;;;;;;5.72;2.50;;;;;;;;;;4961790;28;20037;-77
2021/08/02 12:30:04;;;;;;;5.33;2.60;;;;;;;;;;4960911;28;20022;-77
2021/08/02 12:32:36;;;;;;;5.18;2.42;;;;;;;;;;4958966;28;20478;-77
2021/08/02 12:35:03;;;;;;;6.95;2.80;;;;;;;;;;4985455;28;20057;-76
2021/08/02 12:37:28;;;;;;;5.07;2.40;;;;;;;;;;4994404;28;20033;-76
2021/08/02 12:39:55;;;;;;;5.50;2.40;;;;;;;;;;4960492;28;20034;-77
2021/08/02 12:42:25;;;;;;;5.35;2.47;;;;;;;;;;4976360;28;20037;-77
2021/08/02 12:44:51;;;;;;;6.22;2.75;;;;;;;;;;4972619;28;20392;-76
2021/08/02 12:47:16;;;;;;;6.93;2.70;;;;;;;;;;5011597;28;20041;-77
2021/08/02 12:49:41;;;;;;;7.03;2.23;;;;;;;;;;4976451;28;20061;-77
2021/08/02 12:52:07;;;;;;;5.50;2.37;;;;;;;;;;4976198;28;20069;-76
2021/08/02 12:54:32;;;;;;;7.37;2.47;;;;;;;;;;4989584;28;20108;-76
2021/08/02 12:56:57;;;;;;;6.63;2.40;;;;;;;;;;4996067;28;20404;-76
2021/08/02 12:59:23;;;;;;;5.50;2.67;;;;;;;;;;4979306;28;20066;-76
2021/08/02 13:01:48;;;;;;;5.40;2.47;;;;;;;;;;5012263;28;20062;-76
2021/08/02 13:04:14;;;;;;;5.27;2.40;;;;;;;;;;4987833;28;20034;-76
2021/08/02 13:06:39;;;;;;;5.10;2.33;;;;;;;;;;4976546;28;20057;-76
2021/08/02 13:09:04;;;;;;;5.30;2.43;;;;;;;;;;4976499;28;20062;-77
2021/08/02 13:11:30;;;;;;;5.33;2.47;;;;;;;;;;4975040;28;20047;-76
2021/08/02 13:13:55;;;;;;;6.37;2.57;;;;;;;;;;4961743;28;20022;-76
2021/08/02 13:16:20;;;;;;;6.90;2.30;;;;;;;;;;4963710;28;20049;-76
2021/08/02 13:18:48;;;;;;;6.73;2.30;;;;;;;;;;4976238;28;20160;-76
2021/08/02 13:21:13;;;;;;;4.75;2.03;;;;;;;;;;4976355;28;20026;-76
2021/08/02 13:29:11;;;;;;;5.03;2.30;;;;;;;;;;4993312;28;20401;-76
2021/08/02 13:31:38;;;;;;;5.13;2.50;;;;;;;;;;4975983;28;20026;-77
2021/08/02 13:34:03;;;;;;;4.63;2.20;;;;;;;;;;4959992;28;20105;-77
2021/08/02 13:36:29;;;;;;;4.90;2.00;;;;;;;;;;4980229;23;20172;-76
2021/08/02 13:38:54;;;;;;;5.13;2.13;;;;;;;;;;4998784;28;20052;-77
2021/08/02 13:41:19;;;;;;;4.53;2.00;;;;;;;;;;5031304;28;20072;-76
2021/08/02 13:43:44;;;;;;;4.97;1.93;;;;;;;;;;5014067;28;20104;-76
2021/08/02 13:46:10;;;;;;;5.70;2.50;;;;;;;;;;5032273;28;20072;-76
2021/08/02 13:48:35;;;;;;;4.47;2.23;;;;;;;;;;5031579;28;20037;-76
2021/08/02 13:51:01;;;;;;;5.27;2.30;;;;;;;;;;5041798;22;20132;-76
2021/08/02 13:53:26;;;;;;;4.93;2.53;;;;;;;;;;5014826;28;20113;-76
2021/08/02 13:55:51;;;;;;;6.23;2.40;;;;;;;;;;5050034;28;20056;-76
2021/08/02 13:58:17;;;;;;;5.43;2.50;;;;;;;;;;5036511;28;20033;-76
2021/08/02 14:00:42;;;;;;;5.97;2.47;;;;;;;;;;5034166;28;20557;-76
2021/08/02 14:03:08;;;;;;;7.03;2.17;;;;;;;;;;5015268;28;20406;-76
2021/08/02 14:05:33;;;;;;;7.00;2.30;;;;;;;;;;5030122;28;20443;-77
2021/08/02 14:07:58;;;;;;;4.83;2.37;;;;;;;;;;5035294;28;20030;-76
2021/08/02 14:10:24;;;;;;;6.47;2.47;;;;;;;;;;5051722;28;20108;-77
2021/08/02 14:12:49;;;;;;;5.00;2.30;;;;;;;;;;5018832;28;20112;-77
2021/08/02 14:15:14;;;;;;;5.80;2.50;;;;;;;;;;5016602;28;20516;-76
2021/08/02 14:17:48;;;;;;;7.47;2.37;;;;;;;;;;5033652;28;20388;-77
2021/08/02 14:20:13;;;;;;;6.75;2.33;;;;;;;;;;5018635;28;20029;-76
2021/08/02 14:22:39;;;;;;;7.67;2.57;;;;;;;;;;5034846;28;20167;-76
2021/08/02 14:25:05;;;;;;;5.50;2.10;;;;;;;;;;5044252;28;20085;-76
2021/08/02 14:27:30;;;;;;;5.28;2.45;;;;;;;;;;5034777;28;20032;-77
2021/08/02 14:29:56;;;;;;;7.07;2.50;;;;;;;;;;5026668;28;20065;-77
2021/08/02 14:32:21;;;;;;;7.13;2.53;;;;;;;;;;4995348;28;20050;-76
2021/08/02 14:34:47;;;;;;;9.70;2.40;;;;;;;;;;5006500;28;20308;-76
2021/08/02 14:37:12;;;;;;;5.47;2.27;;;;;;;;;;5016016;28;20072;-76
2021/08/02 14:39:57;;;;;;;6.13;2.53;;;;;;;;;;5014932;28;20060;-76
2021/08/02 14:42:25;;;;;;;5.78;2.38;;;;;;;;;;5027381;28;20222;-76
2021/08/02 14:44:57;;;;;;;8.15;2.60;;;;;;;;;;5029521;28;20026;-76
2021/08/02 14:47:22;;;;;;;8.50;2.50;;;;;;;;;;4997694;28;20034;-76
2021/08/02 14:49:49;;;;;;;8.10;2.63;;;;;;;;;;4991496;28;20576;-76
2021/08/02 14:52:15;;;;;;;5.68;2.47;;;;;;;;;;4991530;28;20394;-76